^^

Nearby METAR Reports

 

KFNL - Ft Collins/Lovel, Colorado, USA
Distance from station: N 2mi, 3km
Updated: 11/30/2022 2:56 am
Clear
Clear
 Wind from calm
Wind: Calm
Temperature: 3°F , -16°C
Dew Point: -0°F , -18°C
Humidity: 85%
Barometer: 1019.6 hPa
Clouds: Clear
Visibility: 10 miles , 16 km
2022/11/30 09:56 KFNL 300956Z 00000KT 10SM CLR M16/M18 A3011 RMK AO2 SLP249 T11611178 FZRANO
KLMO - Longmont/Vbrand, Colorado, USA
Distance from station: SSW 19mi, 31km
Updated: 11/30/2022 3:15 am
Clear
Clear
 Wind from calm
Wind: Calm
Temperature: 7°F , -14°C
Dew Point: 1°F , -17°C
Humidity: 78%
Barometer: 1020 hPa
Clouds: Clear
Visibility: 10 miles , 16 km
2022/11/30 10:15 KLMO 301015Z AUTO 00000KT 10SM CLR M14/M17 A3012 RMK AO2 T11441170
 
KGXY - Greeley/Weld, Colorado, USA
Distance from station: E 21mi, 34km
Updated: 11/30/2022 2:56 am
Freezing fog, Overcast
Freezing fog, Overcast
 Wind from WNW
Wind: WNW 6 mph , 9 km/h
Temperature: -6°F , -21°C
Wind Chill: -19°F , -28°C
Dew Point: -9°F , -23°C
Humidity: 84%
Barometer: 1020.3 hPa
Summary: Freezing Fog
Clouds: Overcast
Visibility: 1/4 mile , 0.4 km
Cloud details: Overcast 200 ft
2022/11/30 09:56 KGXY 300956Z 30005KT 1/4SM FZFG OVC002 M21/M23 A3013 RMK AO2 SLP292 T12061228 FZRANO $
KEIK - Erie Muni, Colorado, USA
Distance from station: S 28mi, 45km
Updated: 11/30/2022 3:15 am
Partly cloudy
Partly cloudy
 Wind from calm
Wind: Calm
Temperature: 5°F , -15°C
Dew Point: 1°F , -17°C
Humidity: 85%
Barometer: 1019.3 hPa
Clouds: Partly cloudy
Visibility: 10 miles , 16 km
Cloud details: Partly cloudy 200 ft
2022/11/30 10:15 KEIK 301015Z AUTO 00000KT 10SM SCT002 M15/M17 A3010 RMK AO2 T11511169
 
KBDU - Boulder Muni, Colorado, USA
Distance from station: SSW 29mi, 47km
Updated: 11/30/2022 3:35 am
Clear
Clear
 Wind from S
Wind: S 3 mph , 6 km/h
Temperature: 12°F , -11°C
Dew Point: 10°F , -12°C
Humidity: 92%
Barometer: 1018.3 hPa
Clouds: Clear
Visibility: 10 miles , 16 km
2022/11/30 10:35 KBDU 301035Z AUTO 18003KT 10SM CLR M11/M12 A3007 RMK AO2
KBJC - Broomfield/Jeffc, Colorado, USA
Distance from station: S 36mi, 58km
Updated: 11/30/2022 3:35 am
Clear
Clear
 Wind from NW
Wind: NW 8 mph , 13 km/h
Temperature: 14°F , -10°C
Wind Chill: 3°F , -16°C
Dew Point: 10°F , -12°C
Humidity: 85%
Barometer: 1017.6 hPa
Clouds: Clear
Visibility: 10 miles , 16 km
2022/11/30 10:35 KBJC 301035Z AUTO 32007KT 10SM CLR M10/M12 A3005 RMK AO2
 
KDEN - Denver (dia), Colorado, USA
Distance from station: SSE 44mi, 70km
Updated: 11/30/2022 2:53 am
Clear
Clear
 Wind from S
Wind: S 6 mph , 9 km/h
Temperature: 9°F , -13°C
Wind Chill: -1°F , -18°C
Dew Point: -0°F , -18°C
Humidity: 66%
Barometer: 1018.3 hPa
Clouds: Clear
Visibility: 10 miles , 16 km
2022/11/30 09:53 KDEN 300953Z 19005KT 10SM CLR M13/M18 A3007 RMK AO2 SLP239 T11281183
KFEW - Warren Air Base, Wyoming, USA
Distance from station: N 50mi, 80km
Updated: 11/30/2022 2:55 am
Clear
Clear
 Wind from NW
Wind: NW 9 mph , 15 km/h
Temperature: 5°F , -15°C
Wind Chill: -9°F , -23°C
Dew Point: -4°F , -20°C
Humidity: 66%
Barometer: 1017.3 hPa
Clouds: Clear
Visibility: 10 miles , 16 km
2022/11/30 09:55 KFEW 300955Z 32008KT 10SM CLR M15/M20 A3004 RMK AO2A SLPNO T11461199 PWINO $
 
KBKF - Buckley Angb/Den, Colorado, USA
Distance from station: SSE 50mi, 81km
Updated: 11/30/2022 2:58 am
Clear
Clear
 Wind from calm
Wind: Calm
Temperature: 12°F , -11°C
Dew Point: 1°F , -17°C
Humidity: 62%
Barometer: 1017.3 hPa
Clouds: Clear
Visibility: 10 miles , 16 km
2022/11/30 09:58 KBKF 300958Z 00000KT 10SM CLR M11/M17 A3004 RMK AO2A SLP229 T11141171